Time,TemperatureF,DewpointF,PressureIn,WindDirection,WindDirectionDegrees,WindSpeedMPH,WindSpeedGustMPH,Humidity,HourlyPrecipIn,Conditions,Clouds,dailyrainin,SoftwareType,DateUTC
2013-08-10 00:11:00,60.0,55.0,-100.00,NNW,330,4.0,4.0,84,0.00,,,0.00,,2013-08-10 05:11:00,
2013-08-10 00:32:00,59.0,55.0,-100.00,NNW,345,5.0,7.0,85,0.00,,,0.00,,2013-08-10 05:32:00,
2013-08-10 01:02:00,57.0,54.0,-100.00,North,0,4.0,4.0,89,0.00,,,0.00,,2013-08-10 06:02:00,
2013-08-10 01:11:00,57.0,54.0,-100.00,North,0,4.0,6.0,87,0.00,,,0.00,,2013-08-10 06:11:00,
2013-08-10 01:32:00,58.0,54.0,-100.00,North,350,2.0,5.0,84,0.00,,,0.00,,2013-08-10 06:32:00,
2013-08-10 02:02:00,55.0,52.0,-100.00,NW,310,1.0,1.0,90,0.00,,,0.00,,2013-08-10 07:02:00,
2013-08-10 02:12:00,53.0,52.0,-100.00,NNW,335,2.0,3.0,92,0.00,,,0.00,,2013-08-10 07:12:00,
2013-08-10 02:33:00,55.0,52.0,-100.00,North,0,4.0,4.0,89,0.00,,,0.00,,2013-08-10 07:33:00,
2013-08-10 02:43:00,55.0,52.0,-100.00,North,0,4.0,5.0,90,0.00,,,0.00,,2013-08-10 07:43:00,
2013-08-10 03:01:00,55.0,50.0,-100.00,North,355,3.0,4.0,85,0.00,,,0.00,,2013-08-10 08:01:00,
2013-08-10 03:53:00,50.0,48.0,-100.00,North,10,2.0,4.0,95,0.00,,,0.00,,2013-08-10 08:53:00,
2013-08-10 04:02:00,49.0,48.0,-100.00,NNE,20,3.0,4.0,96,0.00,,,0.00,,2013-08-10 09:02:00,
2013-08-10 04:12:00,51.0,50.0,-100.00,NNE,25,3.0,4.0,97,0.00,,,0.00,,2013-08-10 09:12:00,
2013-08-10 04:32:00,51.0,50.0,-100.00,NNE,25,3.0,4.0,95,0.00,,,0.00,,2013-08-10 09:32:00,
2013-08-10 05:22:00,53.0,50.0,-100.00,NNE,25,4.0,5.0,93,0.00,,,0.00,,2013-08-10 10:22:00,
2013-08-10 05:33:00,53.0,52.0,-100.00,NNE,25,4.0,5.0,92,0.00,,,0.00,,2013-08-10 10:33:00,
2013-08-10 05:44:00,53.0,52.0,-100.00,NNE,25,4.0,5.0,92,0.00,,,0.00,,2013-08-10 10:44:00,
2013-08-10 05:52:00,53.0,52.0,-100.00,NNE,25,4.0,5.0,92,0.00,,,0.00,,2013-08-10 10:52:00,
2013-08-10 07:01:00,50.0,50.0,-100.00,NE,40,1.0,3.0,96,0.00,,,0.00,,2013-08-10 12:01:00,
2013-08-10 08:32:00,62.0,55.0,-100.00,WNW,285,2.0,3.0,76,0.00,,,0.00,,2013-08-10 13:32:00,
2013-08-10 09:12:00,62.0,55.0,-100.00,NNE,30,2.0,4.0,75,0.00,,,0.00,,2013-08-10 14:12:00,
2013-08-10 09:22:00,63.0,55.0,-100.00,NE,45,1.0,2.0,74,0.00,,,0.00,,2013-08-10 14:22:00,
2013-08-10 09:32:00,65.0,54.0,-100.00,North,5,1.0,3.0,69,0.00,,,0.00,,2013-08-10 14:32:00,
2013-08-10 10:02:00,66.0,55.0,-100.00,WSW,240,4.0,6.0,66,0.00,,,0.00,,2013-08-10 15:02:00,
2013-08-10 10:11:00,67.0,55.0,-100.00,ESE,115,2.0,6.0,65,0.00,,,0.00,,2013-08-10 15:11:00,
2013-08-10 10:52:00,68.0,54.0,-100.00,West,270,2.0,4.0,60,0.00,,,0.00,,2013-08-10 15:52:00,
2013-08-10 11:01:00,68.0,55.0,-100.00,SW,225,2.0,6.0,62,0.00,,,0.00,,2013-08-10 16:01:00,
2013-08-10 11:11:00,67.0,52.0,-100.00,ENE,60,1.0,5.0,57,0.00,,,0.00,,2013-08-10 16:11:00,
2013-08-10 11:32:00,69.0,52.0,-100.00,South,190,4.0,6.0,55,0.00,,,0.00,,2013-08-10 16:32:00,
2013-08-10 12:12:00,68.0,54.0,-100.00,SW,225,6.0,7.0,61,0.00,,,0.00,,2013-08-10 17:12:00,
2013-08-10 12:33:00,68.0,54.0,-100.00,WSW,245,6.0,8.0,61,0.00,,,0.00,,2013-08-10 17:33:00,
2013-08-10 13:01:00,71.0,52.0,-100.00,NE,40,2.0,11.0,50,0.00,,,0.00,,2013-08-10 18:01:00,
2013-08-10 13:11:00,72.0,52.0,-100.00,NW,315,5.0,8.0,49,0.00,,,0.00,,2013-08-10 18:11:00,
2013-08-10 13:43:00,72.0,52.0,-100.00,SSE,150,2.0,4.0,48,0.00,,,0.00,,2013-08-10 18:43:00,
2013-08-10 14:01:00,74.0,52.0,-100.00,WNW,285,6.0,8.0,44,0.00,,,0.00,,2013-08-10 19:01:00,
2013-08-10 14:11:00,72.0,52.0,-100.00,ENE,60,2.0,7.0,46,0.00,,,0.00,,2013-08-10 19:11:00,
2013-08-10 14:22:00,73.0,52.0,-100.00,SW,220,6.0,7.0,47,0.00,,,0.00,,2013-08-10 19:22:00,
2013-08-10 14:32:00,73.0,54.0,-100.00,SSE,160,3.0,6.0,50,0.00,,,0.00,,2013-08-10 19:32:00,
2013-08-10 14:53:00,74.0,54.0,-100.00,SW,230,3.0,9.0,47,0.00,,,0.00,,2013-08-10 19:53:00,
2013-08-10 15:43:00,73.0,52.0,-100.00,West,260,7.0,14.0,47,0.00,,,0.00,,2013-08-10 20:43:00,
2013-08-10 16:02:00,72.0,54.0,-100.00,WNW,290,2.0,7.0,51,0.00,,,0.00,,2013-08-10 21:02:00,
2013-08-10 16:11:00,74.0,54.0,-100.00,South,175,1.0,4.0,48,0.00,,,0.00,,2013-08-10 21:11:00,
2013-08-10 16:22:00,73.0,54.0,-100.00,SE,145,4.0,6.0,50,0.00,,,0.00,,2013-08-10 21:22:00,
2013-08-10 16:32:00,73.0,54.0,-100.00,WSW,250,3.0,9.0,48,0.00,,,0.00,,2013-08-10 21:32:00,
2013-08-10 16:42:00,75.0,54.0,-100.00,SW,235,7.0,11.0,48,0.00,,,0.00,,2013-08-10 21:42:00,
2013-08-10 16:52:00,72.0,54.0,-100.00,SW,220,6.0,9.0,52,0.00,,,0.00,,2013-08-10 21:52:00,
2013-08-10 17:01:00,72.0,52.0,-100.00,SW,220,4.0,8.0,50,0.00,,,0.00,,2013-08-10 22:01:00,
2013-08-10 17:11:00,73.0,54.0,-100.00,SW,215,1.0,6.0,49,0.00,,,0.00,,2013-08-10 22:11:00,
2013-08-10 17:21:00,73.0,54.0,-100.00,NW,310,2.0,6.0,48,0.00,,,0.00,,2013-08-10 22:21:00,
2013-08-10 17:32:00,74.0,54.0,-100.00,WNW,295,2.0,2.0,48,0.00,,,0.00,,2013-08-10 22:32:00,
2013-08-10 17:52:00,72.0,54.0,-100.00,SSW,195,4.0,7.0,52,0.00,,,0.00,,2013-08-10 22:52:00,
2013-08-10 18:01:00,72.0,54.0,-100.00,South,170,4.0,6.0,51,0.00,,,0.00,,2013-08-10 23:01:00,
2013-08-10 18:53:00,71.0,55.0,-100.00,SSE,155,4.0,6.0,57,0.00,,,0.00,,2013-08-10 23:53:00,
2013-08-10 19:01:00,70.0,55.0,-100.00,SSE,150,6.0,7.0,59,0.00,,,0.00,,2013-08-11 00:01:00,
2013-08-10 19:11:00,70.0,55.0,-100.00,SSE,160,5.0,6.0,58,0.00,,,0.00,,2013-08-11 00:11:00,
2013-08-10 19:22:00,70.0,55.0,-100.00,SSE,160,4.0,6.0,60,0.00,,,0.00,,2013-08-11 00:22:00,
2013-08-10 20:11:00,69.0,57.0,-100.00,SE,130,4.0,6.0,65,0.00,,,0.00,,2013-08-11 01:11:00,
2013-08-10 20:22:00,68.0,57.0,-100.00,SE,125,3.0,6.0,66,0.00,,,0.00,,2013-08-11 01:22:00,
2013-08-10 20:32:00,68.0,57.0,-100.00,ESE,120,2.0,5.0,67,0.00,,,0.00,,2013-08-11 01:32:00,
2013-08-10 21:02:00,67.0,57.0,-100.00,ESE,115,2.0,4.0,70,0.00,,,0.00,,2013-08-11 02:02:00,
2013-08-10 21:11:00,67.0,57.0,-100.00,East,100,1.0,4.0,71,0.00,,,0.00,,2013-08-11 02:11:00,
2013-08-10 21:22:00,66.0,57.0,-100.00,SE,125,2.0,2.0,71,0.00,,,0.00,,2013-08-11 02:22:00,
2013-08-10 22:15:00,67.0,57.0,-100.00,SE,135,4.0,5.0,68,0.00,,,0.00,,2013-08-11 03:15:00,
2013-08-10 22:54:00,66.0,55.0,-100.00,SE,135,5.0,6.0,67,0.00,,,0.00,,2013-08-11 03:54:00,
2013-08-10 23:12:00,65.0,55.0,-100.00,ESE,115,4.0,6.0,69,0.00,,,0.00,,2013-08-11 04:12:00,
2013-08-10 23:53:00,66.0,55.0,-100.00,ESE,110,6.0,7.0,69,0.00,,,0.00,,2013-08-11 04:53:00,